sensor_id;sensor_type;location;lat;lon;timestamp;P1;durP1;ratioP1;P2;durP2;ratioP2
15096;SDS011;7649;52.084;7.478;2022-12-07T00:01:05;8.10;;;7.30;;
15096;SDS011;7649;52.084;7.478;2022-12-07T00:03:33;8.97;;;8.07;;
15096;SDS011;7649;52.084;7.478;2022-12-07T00:06:02;8.63;;;7.57;;
15096;SDS011;7649;52.084;7.478;2022-12-07T00:08:31;8.90;;;8.10;;
15096;SDS011;7649;52.084;7.478;2022-12-07T00:11:00;8.43;;;7.57;;
15096;SDS011;7649;52.084;7.478;2022-12-07T00:13:29;8.23;;;7.30;;
15096;SDS011;7649;52.084;7.478;2022-12-07T00:15:59;9.20;;;7.33;;
15096;SDS011;7649;52.084;7.478;2022-12-07T00:18:29;7.60;;;6.90;;
15096;SDS011;7649;52.084;7.478;2022-12-07T00:21:01;8.90;;;6.93;;
15096;SDS011;7649;52.084;7.478;2022-12-07T00:23:30;8.10;;;7.27;;
15096;SDS011;7649;52.084;7.478;2022-12-07T00:26:03;7.60;;;6.87;;
15096;SDS011;7649;52.084;7.478;2022-12-07T00:28:31;9.00;;;7.47;;
15096;SDS011;7649;52.084;7.478;2022-12-07T00:31:01;7.30;;;6.60;;
15096;SDS011;7649;52.084;7.478;2022-12-07T00:33:30;7.83;;;6.47;;
15096;SDS011;7649;52.084;7.478;2022-12-07T00:35:59;9.53;;;7.43;;
15096;SDS011;7649;52.084;7.478;2022-12-07T00:38:28;7.37;;;6.60;;
15096;SDS011;7649;52.084;7.478;2022-12-07T00:40:57;7.23;;;6.53;;
15096;SDS011;7649;52.084;7.478;2022-12-07T00:43:25;7.67;;;6.90;;
15096;SDS011;7649;52.084;7.478;2022-12-07T00:45:54;7.63;;;6.70;;
15096;SDS011;7649;52.084;7.478;2022-12-07T00:48:22;7.13;;;6.50;;
15096;SDS011;7649;52.084;7.478;2022-12-07T00:50:52;10.07;;;6.97;;
15096;SDS011;7649;52.084;7.478;2022-12-07T00:53:20;11.90;;;6.50;;
15096;SDS011;7649;52.084;7.478;2022-12-07T00:55:49;8.67;;;7.10;;
15096;SDS011;7649;52.084;7.478;2022-12-07T00:58:18;7.87;;;7.07;;
15096;SDS011;7649;52.084;7.478;2022-12-07T01:00:47;8.87;;;6.80;;
15096;SDS011;7649;52.084;7.478;2022-12-07T01:03:15;8.10;;;7.30;;
15096;SDS011;7649;52.084;7.478;2022-12-07T01:05:50;8.83;;;7.40;;
15096;SDS011;7649;52.084;7.478;2022-12-07T01:08:20;7.60;;;6.87;;
15096;SDS011;7649;52.084;7.478;2022-12-07T01:10:49;8.20;;;6.97;;
15096;SDS011;7649;52.084;7.478;2022-12-07T01:13:18;9.83;;;7.17;;
15096;SDS011;7649;52.084;7.478;2022-12-07T01:15:46;10.93;;;6.83;;
15096;SDS011;7649;52.084;7.478;2022-12-07T01:18:14;7.70;;;6.57;;
15096;SDS011;7649;52.084;7.478;2022-12-07T01:20:43;8.23;;;6.63;;
15096;SDS011;7649;52.084;7.478;2022-12-07T01:23:11;7.47;;;6.70;;
15096;SDS011;7649;52.084;7.478;2022-12-07T01:25:40;7.23;;;6.47;;
15096;SDS011;7649;52.084;7.478;2022-12-07T01:28:09;10.23;;;7.10;;
15096;SDS011;7649;52.084;7.478;2022-12-07T01:30:37;7.43;;;6.70;;
15096;SDS011;7649;52.084;7.478;2022-12-07T01:33:05;11.20;;;7.30;;
15096;SDS011;7649;52.084;7.478;2022-12-07T01:35:34;10.67;;;6.87;;
15096;SDS011;7649;52.084;7.478;2022-12-07T01:38:02;9.77;;;6.97;;
15096;SDS011;7649;52.084;7.478;2022-12-07T01:40:30;8.83;;;7.17;;
15096;SDS011;7649;52.084;7.478;2022-12-07T01:43:00;10.57;;;7.07;;
15096;SDS011;7649;52.084;7.478;2022-12-07T01:45:37;11.77;;;6.67;;
15096;SDS011;7649;52.084;7.478;2022-12-07T01:48:06;6.47;;;5.73;;
15096;SDS011;7649;52.084;7.478;2022-12-07T01:50:35;7.13;;;6.00;;
15096;SDS011;7649;52.084;7.478;2022-12-07T01:53:05;7.73;;;6.57;;
15096;SDS011;7649;52.084;7.478;2022-12-07T01:55:34;7.60;;;6.43;;
15096;SDS011;7649;52.084;7.478;2022-12-07T01:58:05;7.37;;;6.60;;
15096;SDS011;7649;52.084;7.478;2022-12-07T02:00:34;8.57;;;6.63;;
15096;SDS011;7649;52.084;7.478;2022-12-07T02:03:04;9.13;;;6.20;;
15096;SDS011;7649;52.084;7.478;2022-12-07T02:05:33;12.23;;;6.90;;
15096;SDS011;7649;52.084;7.478;2022-12-07T02:08:02;6.87;;;6.00;;
15096;SDS011;7649;52.084;7.478;2022-12-07T02:10:31;10.53;;;6.93;;
15096;SDS011;7649;52.084;7.478;2022-12-07T02:13:00;7.80;;;6.97;;
15096;SDS011;7649;52.084;7.478;2022-12-07T02:15:33;7.70;;;6.83;;
15096;SDS011;7649;52.084;7.478;2022-12-07T02:18:05;9.20;;;6.43;;
15096;SDS011;7649;52.084;7.478;2022-12-07T02:20:35;9.60;;;6.60;;
15096;SDS011;7649;52.084;7.478;2022-12-07T02:26:01;8.67;;;6.40;;
15096;SDS011;7649;52.084;7.478;2022-12-07T02:28:33;9.60;;;6.10;;
15096;SDS011;7649;52.084;7.478;2022-12-07T02:31:04;10.73;;;6.80;;
15096;SDS011;7649;52.084;7.478;2022-12-07T02:33:33;8.20;;;5.73;;
15096;SDS011;7649;52.084;7.478;2022-12-07T02:36:04;9.20;;;6.00;;
15096;SDS011;7649;52.084;7.478;2022-12-07T02:38:35;9.90;;;6.23;;
15096;SDS011;7649;52.084;7.478;2022-12-07T02:41:04;10.43;;;6.00;;
15096;SDS011;7649;52.084;7.478;2022-12-07T02:43:35;6.30;;;5.57;;
15096;SDS011;7649;52.084;7.478;2022-12-07T02:46:08;10.07;;;5.70;;
15096;SDS011;7649;52.084;7.478;2022-12-07T02:48:37;7.80;;;5.57;;
15096;SDS011;7649;52.084;7.478;2022-12-07T02:51:06;10.83;;;5.93;;
15096;SDS011;7649;52.084;7.478;2022-12-07T02:53:36;9.27;;;5.50;;
15096;SDS011;7649;52.084;7.478;2022-12-07T02:56:07;9.00;;;5.50;;
15096;SDS011;7649;52.084;7.478;2022-12-07T02:58:41;10.50;;;5.30;;
15096;SDS011;7649;52.084;7.478;2022-12-07T03:01:19;9.67;;;5.50;;
15096;SDS011;7649;52.084;7.478;2022-12-07T03:06:38;10.30;;;5.23;;
15096;SDS011;7649;52.084;7.478;2022-12-07T03:09:10;9.70;;;5.10;;
15096;SDS011;7649;52.084;7.478;2022-12-07T03:11:42;11.33;;;5.00;;
15096;SDS011;7649;52.084;7.478;2022-12-07T03:14:13;7.83;;;5.43;;
15096;SDS011;7649;52.084;7.478;2022-12-07T03:16:45;7.37;;;4.60;;
15096;SDS011;7649;52.084;7.478;2022-12-07T03:19:16;9.47;;;5.10;;
15096;SDS011;7649;52.084;7.478;2022-12-07T03:21:46;9.37;;;5.20;;
15096;SDS011;7649;52.084;7.478;2022-12-07T03:24:17;8.73;;;4.33;;
15096;SDS011;7649;52.084;7.478;2022-12-07T03:26:48;8.83;;;4.90;;
15096;SDS011;7649;52.084;7.478;2022-12-07T03:29:17;9.23;;;4.93;;
15096;SDS011;7649;52.084;7.478;2022-12-07T03:31:49;8.93;;;4.30;;
15096;SDS011;7649;52.084;7.478;2022-12-07T03:34:21;8.47;;;4.60;;
15096;SDS011;7649;52.084;7.478;2022-12-07T03:36:52;9.07;;;4.20;;
15096;SDS011;7649;52.084;7.478;2022-12-07T03:39:22;9.50;;;4.00;;
15096;SDS011;7649;52.084;7.478;2022-12-07T03:41:51;6.97;;;4.13;;
15096;SDS011;7649;52.084;7.478;2022-12-07T03:44:20;8.60;;;4.10;;
15096;SDS011;7649;52.084;7.478;2022-12-07T03:46:51;8.50;;;4.30;;
15096;SDS011;7649;52.084;7.478;2022-12-07T03:49:25;14.63;;;4.07;;
15096;SDS011;7649;52.084;7.478;2022-12-07T03:51:56;7.27;;;3.63;;
15096;SDS011;7649;52.084;7.478;2022-12-07T03:54:28;6.77;;;3.90;;
15096;SDS011;7649;52.084;7.478;2022-12-07T03:56:58;7.73;;;3.97;;
15096;SDS011;7649;52.084;7.478;2022-12-07T03:59:27;13.00;;;3.97;;
15096;SDS011;7649;52.084;7.478;2022-12-07T04:01:58;6.53;;;3.30;;
15096;SDS011;7649;52.084;7.478;2022-12-07T04:04:29;6.70;;;3.60;;
15096;SDS011;7649;52.084;7.478;2022-12-07T04:06:57;5.70;;;3.80;;
15096;SDS011;7649;52.084;7.478;2022-12-07T04:09:26;6.43;;;3.47;;
15096;SDS011;7649;52.084;7.478;2022-12-07T04:11:54;7.50;;;3.50;;
15096;SDS011;7649;52.084;7.478;2022-12-07T04:14:23;6.63;;;3.23;;
15096;SDS011;7649;52.084;7.478;2022-12-07T04:16:51;6.23;;;3.07;;
15096;SDS011;7649;52.084;7.478;2022-12-07T04:19:24;6.53;;;3.37;;
15096;SDS011;7649;52.084;7.478;2022-12-07T04:21:53;7.03;;;3.33;;
15096;SDS011;7649;52.084;7.478;2022-12-07T04:24:26;7.87;;;3.40;;
15096;SDS011;7649;52.084;7.478;2022-12-07T04:26:54;7.13;;;3.07;;
15096;SDS011;7649;52.084;7.478;2022-12-07T04:29:22;5.70;;;3.50;;
15096;SDS011;7649;52.084;7.478;2022-12-07T04:31:51;6.73;;;3.37;;
15096;SDS011;7649;52.084;7.478;2022-12-07T04:34:20;6.00;;;3.20;;
15096;SDS011;7649;52.084;7.478;2022-12-07T04:36:49;5.57;;;3.20;;
15096;SDS011;7649;52.084;7.478;2022-12-07T04:39:19;7.53;;;4.10;;
15096;SDS011;7649;52.084;7.478;2022-12-07T04:41:47;11.23;;;3.87;;
15096;SDS011;7649;52.084;7.478;2022-12-07T04:44:16;7.73;;;4.07;;
15096;SDS011;7649;52.084;7.478;2022-12-07T04:46:44;9.27;;;3.77;;
15096;SDS011;7649;52.084;7.478;2022-12-07T04:49:13;6.70;;;3.43;;
15096;SDS011;7649;52.084;7.478;2022-12-07T04:51:42;6.10;;;3.47;;
15096;SDS011;7649;52.084;7.478;2022-12-07T04:54:12;5.70;;;3.40;;
15096;SDS011;7649;52.084;7.478;2022-12-07T04:56:40;7.83;;;3.67;;
15096;SDS011;7649;52.084;7.478;2022-12-07T04:59:09;6.33;;;4.53;;
15096;SDS011;7649;52.084;7.478;2022-12-07T05:01:38;7.30;;;3.70;;
15096;SDS011;7649;52.084;7.478;2022-12-07T05:04:06;6.47;;;3.70;;
15096;SDS011;7649;52.084;7.478;2022-12-07T05:06:35;6.10;;;3.10;;
15096;SDS011;7649;52.084;7.478;2022-12-07T05:09:03;9.47;;;3.67;;
15096;SDS011;7649;52.084;7.478;2022-12-07T05:11:33;7.27;;;3.47;;
15096;SDS011;7649;52.084;7.478;2022-12-07T05:14:09;5.50;;;2.90;;
15096;SDS011;7649;52.084;7.478;2022-12-07T05:16:38;6.67;;;3.30;;
15096;SDS011;7649;52.084;7.478;2022-12-07T05:19:07;8.43;;;3.10;;
15096;SDS011;7649;52.084;7.478;2022-12-07T05:21:35;12.47;;;3.70;;
15096;SDS011;7649;52.084;7.478;2022-12-07T05:24:04;5.80;;;3.37;;
15096;SDS011;7649;52.084;7.478;2022-12-07T05:26:34;6.37;;;3.10;;
15096;SDS011;7649;52.084;7.478;2022-12-07T05:29:02;7.83;;;3.70;;
15096;SDS011;7649;52.084;7.478;2022-12-07T05:31:31;7.83;;;3.23;;
15096;SDS011;7649;52.084;7.478;2022-12-07T05:34:00;9.47;;;3.00;;
15096;SDS011;7649;52.084;7.478;2022-12-07T05:36:28;14.20;;;4.20;;
15096;SDS011;7649;52.084;7.478;2022-12-07T05:38:58;7.83;;;3.30;;
15096;SDS011;7649;52.084;7.478;2022-12-07T05:41:26;6.43;;;2.83;;
15096;SDS011;7649;52.084;7.478;2022-12-07T05:44:14;4.60;;;2.50;;
15096;SDS011;7649;52.084;7.478;2022-12-07T05:46:43;5.97;;;2.50;;
15096;SDS011;7649;52.084;7.478;2022-12-07T05:49:11;6.33;;;2.60;;
15096;SDS011;7649;52.084;7.478;2022-12-07T05:51:39;5.10;;;2.40;;
15096;SDS011;7649;52.084;7.478;2022-12-07T05:54:10;8.20;;;2.33;;
15096;SDS011;7649;52.084;7.478;2022-12-07T05:56:39;8.33;;;2.80;;
15096;SDS011;7649;52.084;7.478;2022-12-07T05:59:07;7.30;;;2.50;;
15096;SDS011;7649;52.084;7.478;2022-12-07T06:01:55;7.17;;;2.90;;
15096;SDS011;7649;52.084;7.478;2022-12-07T06:04:36;5.03;;;2.40;;
15096;SDS011;7649;52.084;7.478;2022-12-07T06:07:04;5.93;;;2.50;;
15096;SDS011;7649;52.084;7.478;2022-12-07T06:09:33;9.77;;;3.00;;
15096;SDS011;7649;52.084;7.478;2022-12-07T06:12:02;5.27;;;2.33;;
15096;SDS011;7649;52.084;7.478;2022-12-07T06:14:48;6.13;;;2.47;;
15096;SDS011;7649;52.084;7.478;2022-12-07T06:17:18;10.70;;;2.83;;
15096;SDS011;7649;52.084;7.478;2022-12-07T06:19:46;5.50;;;2.50;;
15096;SDS011;7649;52.084;7.478;2022-12-07T06:22:14;6.00;;;2.50;;
15096;SDS011;7649;52.084;7.478;2022-12-07T06:24:43;9.93;;;3.00;;
15096;SDS011;7649;52.084;7.478;2022-12-07T06:27:12;8.60;;;2.77;;
15096;SDS011;7649;52.084;7.478;2022-12-07T06:29:40;7.87;;;3.50;;
15096;SDS011;7649;52.084;7.478;2022-12-07T06:32:11;10.73;;;3.10;;
15096;SDS011;7649;52.084;7.478;2022-12-07T06:35:00;7.43;;;2.93;;
15096;SDS011;7649;52.084;7.478;2022-12-07T06:37:28;7.73;;;2.60;;
15096;SDS011;7649;52.084;7.478;2022-12-07T06:39:56;7.73;;;3.00;;
15096;SDS011;7649;52.084;7.478;2022-12-07T06:42:26;8.47;;;3.10;;
15096;SDS011;7649;52.084;7.478;2022-12-07T06:44:54;5.57;;;2.50;;
15096;SDS011;7649;52.084;7.478;2022-12-07T06:47:22;5.60;;;2.70;;
15096;SDS011;7649;52.084;7.478;2022-12-07T06:50:08;4.57;;;2.37;;
15096;SDS011;7649;52.084;7.478;2022-12-07T06:52:36;8.40;;;3.10;;
15096;SDS011;7649;52.084;7.478;2022-12-07T06:55:05;7.80;;;3.13;;
15096;SDS011;7649;52.084;7.478;2022-12-07T07:00:12;7.60;;;2.37;;
15096;SDS011;7649;52.084;7.478;2022-12-07T07:02:47;6.03;;;2.20;;
15096;SDS011;7649;52.084;7.478;2022-12-07T07:05:17;10.63;;;2.87;;
15096;SDS011;7649;52.084;7.478;2022-12-07T07:07:48;6.63;;;2.70;;
15096;SDS011;7649;52.084;7.478;2022-12-07T07:10:36;5.53;;;2.67;;
15096;SDS011;7649;52.084;7.478;2022-12-07T07:13:04;8.57;;;3.10;;
15096;SDS011;7649;52.084;7.478;2022-12-07T07:15:33;5.90;;;2.37;;
15096;SDS011;7649;52.084;7.478;2022-12-07T07:18:01;5.00;;;2.20;;
15096;SDS011;7649;52.084;7.478;2022-12-07T07:20:34;5.77;;;2.47;;
15096;SDS011;7649;52.084;7.478;2022-12-07T07:23:03;5.33;;;2.50;;
15096;SDS011;7649;52.084;7.478;2022-12-07T07:25:31;6.90;;;2.30;;
15096;SDS011;7649;52.084;7.478;2022-12-07T07:27:59;5.17;;;2.40;;
15096;SDS011;7649;52.084;7.478;2022-12-07T07:30:28;10.50;;;2.73;;
15096;SDS011;7649;52.084;7.478;2022-12-07T07:32:56;6.40;;;2.43;;
15096;SDS011;7649;52.084;7.478;2022-12-07T07:35:25;7.10;;;2.63;;
15096;SDS011;7649;52.084;7.478;2022-12-07T07:37:55;5.27;;;2.40;;
15096;SDS011;7649;52.084;7.478;2022-12-07T07:40:23;7.80;;;2.80;;
15096;SDS011;7649;52.084;7.478;2022-12-07T07:42:52;7.47;;;2.60;;
15096;SDS011;7649;52.084;7.478;2022-12-07T07:45:22;6.40;;;2.83;;
15096;SDS011;7649;52.084;7.478;2022-12-07T07:47:50;8.07;;;2.70;;
15096;SDS011;7649;52.084;7.478;2022-12-07T07:50:19;8.87;;;2.27;;
15096;SDS011;7649;52.084;7.478;2022-12-07T07:52:48;6.10;;;2.50;;
15096;SDS011;7649;52.084;7.478;2022-12-07T07:55:17;6.27;;;2.90;;
15096;SDS011;7649;52.084;7.478;2022-12-07T07:57:46;9.47;;;3.10;;
15096;SDS011;7649;52.084;7.478;2022-12-07T08:00:20;7.90;;;2.20;;
15096;SDS011;7649;52.084;7.478;2022-12-07T08:02:49;9.13;;;2.77;;
15096;SDS011;7649;52.084;7.478;2022-12-07T08:05:17;5.43;;;2.67;;
15096;SDS011;7649;52.084;7.478;2022-12-07T08:07:45;7.93;;;2.67;;
15096;SDS011;7649;52.084;7.478;2022-12-07T08:10:14;5.80;;;2.23;;
15096;SDS011;7649;52.084;7.478;2022-12-07T08:12:43;7.67;;;2.80;;
15096;SDS011;7649;52.084;7.478;2022-12-07T08:15:38;6.67;;;2.80;;
15096;SDS011;7649;52.084;7.478;2022-12-07T08:18:06;6.07;;;2.70;;
15096;SDS011;7649;52.084;7.478;2022-12-07T08:20:35;8.20;;;2.67;;
15096;SDS011;7649;52.084;7.478;2022-12-07T08:23:04;6.83;;;2.30;;
15096;SDS011;7649;52.084;7.478;2022-12-07T08:25:32;4.67;;;1.93;;
15096;SDS011;7649;52.084;7.478;2022-12-07T08:28:02;4.53;;;2.10;;
15096;SDS011;7649;52.084;7.478;2022-12-07T08:30:31;6.73;;;3.10;;
15096;SDS011;7649;52.084;7.478;2022-12-07T08:33:00;7.10;;;2.73;;
15096;SDS011;7649;52.084;7.478;2022-12-07T08:35:29;6.37;;;2.20;;
15096;SDS011;7649;52.084;7.478;2022-12-07T08:37:57;5.10;;;1.93;;
15096;SDS011;7649;52.084;7.478;2022-12-07T08:40:25;4.70;;;2.27;;
15096;SDS011;7649;52.084;7.478;2022-12-07T08:42:54;4.23;;;2.40;;
15096;SDS011;7649;52.084;7.478;2022-12-07T08:45:23;6.00;;;2.10;;
15096;SDS011;7649;52.084;7.478;2022-12-07T08:47:53;3.90;;;2.10;;
15096;SDS011;7649;52.084;7.478;2022-12-07T08:50:23;5.97;;;2.23;;
15096;SDS011;7649;52.084;7.478;2022-12-07T08:52:52;5.40;;;2.00;;
15096;SDS011;7649;52.084;7.478;2022-12-07T08:55:21;5.37;;;2.10;;
15096;SDS011;7649;52.084;7.478;2022-12-07T08:57:49;4.97;;;2.00;;
15096;SDS011;7649;52.084;7.478;2022-12-07T09:00:18;5.90;;;2.13;;
15096;SDS011;7649;52.084;7.478;2022-12-07T09:02:47;7.33;;;2.37;;
15096;SDS011;7649;52.084;7.478;2022-12-07T09:05:16;6.67;;;2.53;;
15096;SDS011;7649;52.084;7.478;2022-12-07T09:07:45;5.97;;;1.87;;
15096;SDS011;7649;52.084;7.478;2022-12-07T09:10:14;7.03;;;2.30;;
15096;SDS011;7649;52.084;7.478;2022-12-07T09:12:42;6.90;;;1.87;;
15096;SDS011;7649;52.084;7.478;2022-12-07T09:15:10;8.17;;;2.20;;
15096;SDS011;7649;52.084;7.478;2022-12-07T09:17:38;6.33;;;2.40;;
15096;SDS011;7649;52.084;7.478;2022-12-07T09:20:09;5.50;;;2.20;;
15096;SDS011;7649;52.084;7.478;2022-12-07T09:22:37;8.03;;;2.20;;
15096;SDS011;7649;52.084;7.478;2022-12-07T09:25:06;9.40;;;2.47;;
15096;SDS011;7649;52.084;7.478;2022-12-07T09:27:34;7.17;;;2.50;;
15096;SDS011;7649;52.084;7.478;2022-12-07T09:30:02;4.87;;;2.33;;
15096;SDS011;7649;52.084;7.478;2022-12-07T09:32:31;4.83;;;2.10;;
15096;SDS011;7649;52.084;7.478;2022-12-07T09:34:59;5.73;;;2.63;;
15096;SDS011;7649;52.084;7.478;2022-12-07T09:37:29;4.13;;;2.30;;
15096;SDS011;7649;52.084;7.478;2022-12-07T09:40:01;8.33;;;2.50;;
15096;SDS011;7649;52.084;7.478;2022-12-07T09:42:33;4.00;;;1.90;;
15096;SDS011;7649;52.084;7.478;2022-12-07T09:45:02;9.70;;;2.50;;
15096;SDS011;7649;52.084;7.478;2022-12-07T09:47:32;5.50;;;2.20;;
15096;SDS011;7649;52.084;7.478;2022-12-07T09:50:03;4.90;;;1.90;;
15096;SDS011;7649;52.084;7.478;2022-12-07T09:52:35;5.67;;;1.77;;
15096;SDS011;7649;52.084;7.478;2022-12-07T09:55:08;8.07;;;2.37;;
15096;SDS011;7649;52.084;7.478;2022-12-07T09:57:37;8.43;;;2.27;;
15096;SDS011;7649;52.084;7.478;2022-12-07T10:00:06;4.17;;;1.63;;
15096;SDS011;7649;52.084;7.478;2022-12-07T10:02:36;5.73;;;1.90;;
15096;SDS011;7649;52.084;7.478;2022-12-07T10:05:05;7.87;;;1.90;;
15096;SDS011;7649;52.084;7.478;2022-12-07T10:07:35;6.00;;;1.77;;
15096;SDS011;7649;52.084;7.478;2022-12-07T10:10:04;6.17;;;1.93;;
15096;SDS011;7649;52.084;7.478;2022-12-07T10:12:42;3.90;;;2.10;;
15096;SDS011;7649;52.084;7.478;2022-12-07T10:15:20;4.33;;;1.97;;
15096;SDS011;7649;52.084;7.478;2022-12-07T10:17:49;5.83;;;1.83;;
15096;SDS011;7649;52.084;7.478;2022-12-07T10:20:20;8.17;;;2.23;;
15096;SDS011;7649;52.084;7.478;2022-12-07T10:23:01;4.17;;;1.57;;
15096;SDS011;7649;52.084;7.478;2022-12-07T10:25:31;5.27;;;1.87;;
15096;SDS011;7649;52.084;7.478;2022-12-07T10:28:01;5.87;;;1.93;;
15096;SDS011;7649;52.084;7.478;2022-12-07T10:30:30;5.47;;;2.00;;
15096;SDS011;7649;52.084;7.478;2022-12-07T10:32:59;4.27;;;2.40;;
15096;SDS011;7649;52.084;7.478;2022-12-07T10:35:28;5.50;;;2.40;;
15096;SDS011;7649;52.084;7.478;2022-12-07T10:37:58;4.73;;;2.30;;
15096;SDS011;7649;52.084;7.478;2022-12-07T10:40:30;5.20;;;2.30;;
15096;SDS011;7649;52.084;7.478;2022-12-07T10:43:06;5.03;;;2.60;;
15096;SDS011;7649;52.084;7.478;2022-12-07T10:45:37;8.63;;;2.53;;
15096;SDS011;7649;52.084;7.478;2022-12-07T10:48:29;5.00;;;2.00;;
15096;SDS011;7649;52.084;7.478;2022-12-07T10:51:03;6.33;;;1.93;;
15096;SDS011;7649;52.084;7.478;2022-12-07T10:53:37;7.43;;;2.27;;
15096;SDS011;7649;52.084;7.478;2022-12-07T10:56:17;5.00;;;2.07;;
15096;SDS011;7649;52.084;7.478;2022-12-07T10:58:55;5.23;;;2.40;;
15096;SDS011;7649;52.084;7.478;2022-12-07T11:01:29;5.50;;;1.70;;
15096;SDS011;7649;52.084;7.478;2022-12-07T11:04:13;6.73;;;2.20;;
15096;SDS011;7649;52.084;7.478;2022-12-07T11:06:44;6.03;;;2.30;;
15096;SDS011;7649;52.084;7.478;2022-12-07T11:09:25;9.47;;;2.50;;
15096;SDS011;7649;52.084;7.478;2022-12-07T11:12:20;5.93;;;2.07;;
15096;SDS011;7649;52.084;7.478;2022-12-07T11:14:54;6.03;;;2.13;;
15096;SDS011;7649;52.084;7.478;2022-12-07T11:17:25;5.20;;;2.20;;
15096;SDS011;7649;52.084;7.478;2022-12-07T11:20:00;3.63;;;1.90;;
15096;SDS011;7649;52.084;7.478;2022-12-07T11:22:32;5.83;;;1.60;;
15096;SDS011;7649;52.084;7.478;2022-12-07T11:25:13;4.33;;;2.73;;
15096;SDS011;7649;52.084;7.478;2022-12-07T11:27:47;3.63;;;2.03;;
15096;SDS011;7649;52.084;7.478;2022-12-07T11:30:16;5.83;;;1.93;;
15096;SDS011;7649;52.084;7.478;2022-12-07T11:32:53;9.03;;;2.50;;
15096;SDS011;7649;52.084;7.478;2022-12-07T11:35:24;5.07;;;2.70;;
15096;SDS011;7649;52.084;7.478;2022-12-07T11:37:57;6.90;;;2.03;;
15096;SDS011;7649;52.084;7.478;2022-12-07T11:40:28;6.23;;;2.03;;
15096;SDS011;7649;52.084;7.478;2022-12-07T11:43:04;4.60;;;1.87;;
15096;SDS011;7649;52.084;7.478;2022-12-07T11:45:34;7.20;;;2.00;;
15096;SDS011;7649;52.084;7.478;2022-12-07T11:48:03;5.93;;;2.07;;
15096;SDS011;7649;52.084;7.478;2022-12-07T11:50:34;7.17;;;2.13;;
15096;SDS011;7649;52.084;7.478;2022-12-07T11:53:05;4.13;;;1.80;;
15096;SDS011;7649;52.084;7.478;2022-12-07T11:55:40;7.40;;;2.10;;
15096;SDS011;7649;52.084;7.478;2022-12-07T11:58:18;3.60;;;1.93;;
15096;SDS011;7649;52.084;7.478;2022-12-07T12:00:49;6.37;;;2.07;;
15096;SDS011;7649;52.084;7.478;2022-12-07T12:03:20;4.83;;;1.80;;
15096;SDS011;7649;52.084;7.478;2022-12-07T12:08:50;5.03;;;2.07;;
15096;SDS011;7649;52.084;7.478;2022-12-07T12:11:49;4.07;;;1.87;;
15096;SDS011;7649;52.084;7.478;2022-12-07T12:14:48;3.73;;;1.77;;
15096;SDS011;7649;52.084;7.478;2022-12-07T12:17:39;4.43;;;1.70;;
15096;SDS011;7649;52.084;7.478;2022-12-07T12:20:16;6.43;;;2.03;;
15096;SDS011;7649;52.084;7.478;2022-12-07T12:22:48;3.80;;;1.83;;
15096;SDS011;7649;52.084;7.478;2022-12-07T12:25:19;3.17;;;1.80;;
15096;SDS011;7649;52.084;7.478;2022-12-07T12:27:49;9.20;;;2.30;;
15096;SDS011;7649;52.084;7.478;2022-12-07T12:30:31;5.63;;;2.00;;
15096;SDS011;7649;52.084;7.478;2022-12-07T12:33:04;4.73;;;1.63;;
15096;SDS011;7649;52.084;7.478;2022-12-07T12:35:34;5.77;;;2.10;;
15096;SDS011;7649;52.084;7.478;2022-12-07T12:40:50;8.03;;;1.97;;
15096;SDS011;7649;52.084;7.478;2022-12-07T12:48:54;3.40;;;1.70;;
15096;SDS011;7649;52.084;7.478;2022-12-07T12:51:36;5.73;;;2.40;;
15096;SDS011;7649;52.084;7.478;2022-12-07T12:54:05;4.97;;;1.97;;
15096;SDS011;7649;52.084;7.478;2022-12-07T12:56:35;4.80;;;2.20;;
15096;SDS011;7649;52.084;7.478;2022-12-07T13:01:55;4.17;;;2.03;;
15096;SDS011;7649;52.084;7.478;2022-12-07T13:04:39;6.10;;;2.23;;
15096;SDS011;7649;52.084;7.478;2022-12-07T13:10:03;6.13;;;2.40;;
15096;SDS011;7649;52.084;7.478;2022-12-07T13:12:32;9.57;;;2.10;;
15096;SDS011;7649;52.084;7.478;2022-12-07T13:15:00;6.70;;;2.07;;
15096;SDS011;7649;52.084;7.478;2022-12-07T13:23:01;5.33;;;2.10;;
15096;SDS011;7649;52.084;7.478;2022-12-07T13:25:31;7.60;;;3.00;;
15096;SDS011;7649;52.084;7.478;2022-12-07T13:28:02;7.97;;;2.07;;
15096;SDS011;7649;52.084;7.478;2022-12-07T13:30:31;7.07;;;2.37;;
15096;SDS011;7649;52.084;7.478;2022-12-07T13:33:00;5.97;;;2.30;;
15096;SDS011;7649;52.084;7.478;2022-12-07T13:35:29;5.60;;;2.17;;
15096;SDS011;7649;52.084;7.478;2022-12-07T13:37:57;7.97;;;2.33;;
15096;SDS011;7649;52.084;7.478;2022-12-07T13:40:27;4.53;;;2.03;;
15096;SDS011;7649;52.084;7.478;2022-12-07T13:42:57;6.47;;;2.37;;
15096;SDS011;7649;52.084;7.478;2022-12-07T13:45:26;8.77;;;3.07;;
15096;SDS011;7649;52.084;7.478;2022-12-07T13:48:10;7.50;;;2.50;;
15096;SDS011;7649;52.084;7.478;2022-12-07T13:50:42;6.20;;;2.10;;
15096;SDS011;7649;52.084;7.478;2022-12-07T13:53:11;5.27;;;1.90;;
15096;SDS011;7649;52.084;7.478;2022-12-07T13:55:46;10.83;;;2.37;;
15096;SDS011;7649;52.084;7.478;2022-12-07T13:58:19;8.43;;;2.17;;
15096;SDS011;7649;52.084;7.478;2022-12-07T14:00:48;7.97;;;2.73;;
15096;SDS011;7649;52.084;7.478;2022-12-07T14:03:25;4.80;;;2.40;;
15096;SDS011;7649;52.084;7.478;2022-12-07T14:08:41;10.40;;;4.80;;
15096;SDS011;7649;52.084;7.478;2022-12-07T14:11:12;18.07;;;10.53;;
15096;SDS011;7649;52.084;7.478;2022-12-07T14:13:49;4.77;;;1.87;;
15096;SDS011;7649;52.084;7.478;2022-12-07T14:16:22;6.67;;;2.50;;
15096;SDS011;7649;52.084;7.478;2022-12-07T14:18:51;8.47;;;2.30;;
15096;SDS011;7649;52.084;7.478;2022-12-07T14:21:20;7.50;;;2.53;;
15096;SDS011;7649;52.084;7.478;2022-12-07T14:24:04;8.70;;;3.03;;
15096;SDS011;7649;52.084;7.478;2022-12-07T14:26:37;7.17;;;2.93;;
15096;SDS011;7649;52.084;7.478;2022-12-07T14:29:18;8.10;;;3.47;;
15096;SDS011;7649;52.084;7.478;2022-12-07T14:31:46;6.33;;;2.50;;
15096;SDS011;7649;52.084;7.478;2022-12-07T14:34:15;5.23;;;2.13;;
15096;SDS011;7649;52.084;7.478;2022-12-07T14:36:43;3.30;;;2.40;;
15096;SDS011;7649;52.084;7.478;2022-12-07T14:39:11;5.20;;;1.97;;
15096;SDS011;7649;52.084;7.478;2022-12-07T14:41:41;5.93;;;2.23;;
15096;SDS011;7649;52.084;7.478;2022-12-07T14:44:18;3.93;;;2.20;;
15096;SDS011;7649;52.084;7.478;2022-12-07T14:46:53;10.53;;;7.27;;
15096;SDS011;7649;52.084;7.478;2022-12-07T14:49:41;5.97;;;2.43;;
15096;SDS011;7649;52.084;7.478;2022-12-07T14:52:12;5.57;;;2.13;;
15096;SDS011;7649;52.084;7.478;2022-12-07T14:55:01;6.93;;;2.13;;
15096;SDS011;7649;52.084;7.478;2022-12-07T14:57:31;7.17;;;2.70;;
15096;SDS011;7649;52.084;7.478;2022-12-07T15:00:01;6.13;;;3.07;;
15096;SDS011;7649;52.084;7.478;2022-12-07T15:02:29;6.60;;;2.27;;
15096;SDS011;7649;52.084;7.478;2022-12-07T15:04:58;4.80;;;3.00;;
15096;SDS011;7649;52.084;7.478;2022-12-07T15:07:27;9.33;;;3.20;;
15096;SDS011;7649;52.084;7.478;2022-12-07T15:09:55;9.23;;;3.63;;
15096;SDS011;7649;52.084;7.478;2022-12-07T15:12:24;8.13;;;3.73;;
15096;SDS011;7649;52.084;7.478;2022-12-07T15:14:55;8.93;;;4.27;;
15096;SDS011;7649;52.084;7.478;2022-12-07T15:17:24;12.43;;;2.70;;
15096;SDS011;7649;52.084;7.478;2022-12-07T15:19:57;6.60;;;2.90;;
15096;SDS011;7649;52.084;7.478;2022-12-07T15:22:26;6.73;;;2.80;;
15096;SDS011;7649;52.084;7.478;2022-12-07T15:25:03;45.23;;;19.00;;
15096;SDS011;7649;52.084;7.478;2022-12-07T15:27:32;8.63;;;3.27;;
15096;SDS011;7649;52.084;7.478;2022-12-07T15:30:02;5.97;;;3.07;;
15096;SDS011;7649;52.084;7.478;2022-12-07T15:32:30;6.77;;;3.10;;
15096;SDS011;7649;52.084;7.478;2022-12-07T15:34:59;6.43;;;2.80;;
15096;SDS011;7649;52.084;7.478;2022-12-07T15:37:27;9.47;;;3.60;;
15096;SDS011;7649;52.084;7.478;2022-12-07T15:39:56;10.70;;;4.00;;
15096;SDS011;7649;52.084;7.478;2022-12-07T15:42:32;9.70;;;3.87;;
15096;SDS011;7649;52.084;7.478;2022-12-07T15:45:02;8.67;;;4.17;;
15096;SDS011;7649;52.084;7.478;2022-12-07T15:47:31;10.20;;;3.50;;
15096;SDS011;7649;52.084;7.478;2022-12-07T15:50:19;10.97;;;4.17;;
15096;SDS011;7649;52.084;7.478;2022-12-07T15:52:48;8.60;;;4.40;;
15096;SDS011;7649;52.084;7.478;2022-12-07T15:55:16;9.93;;;4.53;;
15096;SDS011;7649;52.084;7.478;2022-12-07T15:57:45;10.63;;;4.00;;